Time;durP1;ratioP1;P1;durP2;ratioP2;P2;SDS_P1;SDS_P2;PMS_P1;PMS_P2;Temp;Humidity;BMP_temperature;BMP_pressure;BME280_temperature;BME280_humidity;BME280_pressure;Samples;Min_cycle;Max_cycle;Signal;HPM_P1;HPM_P2
2023/04/18 00:02:19;;;;;;;14.60;12.65;;;8.60;79.30;;;;;;5065021;27;114261;-83
2023/04/18 00:04:46;;;;;;;11.82;10.43;;;8.60;79.30;;;;;;5064445;27;114649;-82
2023/04/18 00:07:16;;;;;;;11.77;10.57;;;8.60;79.20;;;;;;5064409;27;114994;-83
2023/04/18 00:09:44;;;;;;;12.07;9.85;;;8.70;79.10;;;;;;5046527;27;114676;-82
2023/04/18 00:12:11;;;;;;;12.88;9.95;;;8.70;79.00;;;;;;5066102;27;114454;-82
2023/04/18 00:14:39;;;;;;;12.35;10.68;;;8.60;79.00;;;;;;5065475;27;115685;-82
2023/04/18 00:17:07;;;;;;;11.15;9.98;;;8.60;79.10;;;;;;5046324;27;114957;-83
2023/04/18 00:19:42;;;;;;;11.48;9.73;;;8.60;79.00;;;;;;5062954;27;115535;-82
2023/04/18 00:22:10;;;;;;;10.60;9.38;;;8.70;79.10;;;;;;5065817;27;114616;-83
2023/04/18 00:24:37;;;;;;;9.75;8.23;;;8.60;79.00;;;;;;5031034;27;114831;-83
2023/04/18 00:27:04;;;;;;;9.43;8.32;;;8.60;79.00;;;;;;5062968;27;114273;-82
2023/04/18 00:29:32;;;;;;;10.55;9.00;;;8.60;79.10;;;;;;5063920;27;114541;-83
2023/04/18 00:32:00;;;;;;;10.50;9.07;;;8.60;79.10;;;;;;5046873;27;114465;-84
2023/04/18 00:34:29;;;;;;;10.98;9.30;;;8.60;79.00;;;;;;5047221;27;114543;-84
2023/04/18 00:36:56;;;;;;;10.43;9.15;;;8.60;79.00;;;;;;5028162;27;117819;-84
2023/04/18 00:39:24;;;;;;;11.10;9.30;;;8.50;79.10;;;;;;5062355;27;114673;-84
2023/04/18 00:41:52;;;;;;;12.30;10.30;;;8.60;79.30;;;;;;5063280;27;114563;-84
2023/04/18 00:44:19;;;;;;;11.48;9.38;;;8.60;79.40;;;;;;5063112;27;114427;-84
2023/04/18 00:46:47;;;;;;;10.60;9.27;;;8.50;79.40;;;;;;5063704;27;114808;-83
2023/04/18 00:49:14;;;;;;;11.05;9.35;;;8.50;79.50;;;;;;5062229;27;114767;-83
2023/04/18 00:51:41;;;;;;;11.90;10.20;;;8.50;79.50;;;;;;5063533;27;114278;-84
2023/04/18 00:54:11;;;;;;;9.50;8.45;;;8.50;79.60;;;;;;5012226;27;114370;-84
2023/04/18 00:56:39;;;;;;;10.20;9.10;;;8.50;79.60;;;;;;5062058;27;115358;-84
2023/04/18 00:59:06;;;;;;;11.38;9.30;;;8.50;79.60;;;;;;5062462;27;114853;-84
2023/04/18 01:01:33;;;;;;;12.32;10.27;;;8.50;79.60;;;;;;5030518;27;115400;-84
2023/04/18 01:04:01;;;;;;;13.18;10.60;;;8.50;79.60;;;;;;5026561;27;114494;-83
2023/04/18 01:06:28;;;;;;;12.25;10.80;;;8.50;79.60;;;;;;5063451;27;114827;-83
2023/04/18 01:08:55;;;;;;;12.45;10.27;;;8.40;79.70;;;;;;5061537;27;115090;-83
2023/04/18 01:11:24;;;;;;;12.95;11.32;;;8.50;79.70;;;;;;5062478;27;114381;-83
2023/04/18 01:14:04;;;;;;;12.68;11.32;;;8.50;79.80;;;;;;5061981;27;114473;-84
2023/04/18 01:16:35;;;;;;;14.95;11.77;;;8.50;79.70;;;;;;5048112;27;114773;-83
2023/04/18 01:19:03;;;;;;;14.60;12.30;;;8.40;79.80;;;;;;5065498;27;114657;-84
2023/04/18 01:21:32;;;;;;;15.57;12.63;;;8.50;79.80;;;;;;5058119;27;116251;-84
2023/04/18 01:24:06;;;;;;;15.27;11.52;;;8.50;79.80;;;;;;5045187;27;114528;-84
2023/04/18 01:26:33;;;;;;;12.95;11.55;;;8.50;79.60;;;;;;5011603;27;115438;-83
2023/04/18 01:29:04;;;;;;;13.32;11.93;;;8.50;79.60;;;;;;5031661;27;114710;-83
2023/04/18 01:31:35;;;;;;;15.38;11.43;;;8.50;79.70;;;;;;5044948;27;114661;-82
2023/04/18 01:34:03;;;;;;;13.68;10.90;;;8.40;79.60;;;;;;5045240;27;114462;-83
2023/04/18 01:36:30;;;;;;;13.32;11.07;;;8.40;79.70;;;;;;5044277;27;115514;-83
2023/04/18 01:38:58;;;;;;;14.25;12.05;;;8.40;79.70;;;;;;5027602;27;115281;-84
2023/04/18 01:41:27;;;;;;;13.43;11.45;;;8.40;79.70;;;;;;5044809;27;114648;-84
2023/04/18 01:43:54;;;;;;;12.75;11.00;;;8.40;79.70;;;;;;5045327;27;114723;-83
2023/04/18 01:46:21;;;;;;;13.82;11.93;;;8.40;79.70;;;;;;5044474;27;115462;-84
2023/04/18 01:48:49;;;;;;;15.90;11.25;;;8.40;79.70;;;;;;5044913;27;114623;-84
2023/04/18 01:51:20;;;;;;;12.48;11.10;;;8.40;79.80;;;;;;5011651;27;114512;-84
2023/04/18 01:53:47;;;;;;;13.98;10.75;;;8.40;79.60;;;;;;5045938;27;115354;-84
2023/04/18 01:56:14;;;;;;;13.00;11.13;;;8.50;79.60;;;;;;5045042;27;115375;-84
2023/04/18 01:58:41;;;;;;;14.18;12.18;;;8.40;79.50;;;;;;5026949;27;115379;-84
2023/04/18 02:01:08;;;;;;;13.70;12.15;;;8.50;79.50;;;;;;5044448;27;114510;-84
2023/04/18 02:03:36;;;;;;;12.23;10.50;;;8.40;79.50;;;;;;4978301;27;114407;-83
2023/04/18 02:06:03;;;;;;;13.73;11.45;;;8.50;79.50;;;;;;5043766;27;114894;-86
2023/04/18 02:08:34;;;;;;;15.07;12.20;;;8.50;79.40;;;;;;5044259;27;114655;-84
2023/04/18 02:11:04;;;;;;;14.15;12.18;;;8.40;79.40;;;;;;5045651;27;114569;-83
2023/04/18 02:13:31;;;;;;;14.38;11.45;;;8.40;79.30;;;;;;5044682;27;114547;-83
2023/04/18 02:15:58;;;;;;;13.95;11.55;;;8.50;79.30;;;;;;5044382;27;114864;-84
2023/04/18 02:18:26;;;;;;;13.57;12.15;;;8.50;78.80;;;;;;5044907;27;114946;-83
2023/04/18 02:20:53;;;;;;;13.52;11.38;;;8.50;78.70;;;;;;5050717;27;114746;-82
2023/04/18 02:23:24;;;;;;;13.50;11.70;;;8.50;78.60;;;;;;5048682;27;114633;-82
2023/04/18 02:25:54;;;;;;;13.75;11.52;;;8.50;78.50;;;;;;5063840;27;114976;-82
2023/04/18 02:28:21;;;;;;;15.00;11.63;;;8.50;78.40;;;;;;5065234;27;114757;-83
2023/04/18 02:30:54;;;;;;;13.48;11.70;;;8.50;78.20;;;;;;5066928;27;114424;-83
2023/04/18 02:33:21;;;;;;;13.48;10.75;;;8.50;78.10;;;;;;5050855;27;114561;-84
2023/04/18 02:35:51;;;;;;;13.73;11.13;;;8.50;77.80;;;;;;5016494;27;117743;-83
2023/04/18 02:38:19;;;;;;;15.82;12.60;;;8.50;77.90;;;;;;5066453;27;114710;-84
2023/04/18 02:40:51;;;;;;;20.85;16.48;;;8.50;77.80;;;;;;5067776;27;114425;-83
2023/04/18 02:43:19;;;;;;;15.95;12.88;;;8.50;77.70;;;;;;5067180;27;114526;-84
2023/04/18 02:45:46;;;;;;;15.52;12.98;;;8.50;77.60;;;;;;5048853;27;115776;-84
2023/04/18 02:48:13;;;;;;;15.32;11.70;;;8.50;77.60;;;;;;5064219;27;114766;-84
2023/04/18 02:50:41;;;;;;;14.90;12.55;;;8.60;77.50;;;;;;5064893;27;114531;-83
2023/04/18 02:53:09;;;;;;;16.08;12.38;;;8.50;77.50;;;;;;5052662;27;116989;-84
2023/04/18 02:55:50;;;;;;;16.23;12.57;;;8.60;77.40;;;;;;5045377;27;115226;-83
2023/04/18 02:58:18;;;;;;;14.18;12.35;;;8.50;77.40;;;;;;5057429;27;114594;-83
2023/04/18 03:01:07;;;;;;;16.17;12.82;;;8.50;77.20;;;;;;5047901;27;114561;-83
2023/04/18 03:03:52;;;;;;;15.13;12.55;;;8.40;77.30;;;;;;5028222;27;114263;-83
2023/04/18 03:06:36;;;;;;;15.38;13.38;;;8.50;77.50;;;;;;5043515;27;115684;-83
2023/04/18 03:09:03;;;;;;;15.40;12.93;;;8.50;77.50;;;;;;5046492;27;115922;-83
2023/04/18 03:11:33;;;;;;;15.50;13.63;;;8.40;77.50;;;;;;5031816;27;114356;-83
2023/04/18 03:14:01;;;;;;;17.15;13.63;;;8.40;77.40;;;;;;5045436;27;114448;-83
2023/04/18 03:16:36;;;;;;;18.38;14.73;;;8.50;77.50;;;;;;5027877;27;114983;-84
2023/04/18 03:19:05;;;;;;;15.90;13.65;;;8.50;77.50;;;;;;5043788;27;114836;-84
2023/04/18 03:21:33;;;;;;;17.70;14.05;;;8.50;77.50;;;;;;5011462;27;114466;-84
2023/04/18 03:24:00;;;;;;;18.92;14.77;;;8.50;77.50;;;;;;5044668;27;114396;-83
2023/04/18 03:26:27;;;;;;;18.00;14.00;;;8.50;77.50;;;;;;5026635;27;114953;-83
2023/04/18 03:28:55;;;;;;;17.75;14.93;;;8.50;77.50;;;;;;5010424;27;114549;-83
2023/04/18 03:31:24;;;;;;;19.17;15.25;;;8.50;77.30;;;;;;5026779;27;114601;-82
2023/04/18 03:33:51;;;;;;;18.10;14.20;;;8.40;77.40;;;;;;5027516;27;116310;-83
2023/04/18 03:36:24;;;;;;;18.05;15.77;;;8.50;77.20;;;;;;5026482;27;116105;-83
2023/04/18 03:38:54;;;;;;;16.27;14.40;;;8.50;77.00;;;;;;5041749;27;114610;-83
2023/04/18 03:41:21;;;;;;;16.65;14.88;;;8.50;76.60;;;;;;5010796;27;114356;-83
2023/04/18 03:43:48;;;;;;;18.15;14.27;;;8.40;76.60;;;;;;5036035;27;114433;-83
2023/04/18 03:46:16;;;;;;;17.48;15.05;;;8.40;76.60;;;;;;5009360;27;117182;-84
2023/04/18 03:48:44;;;;;;;18.52;14.73;;;8.50;76.50;;;;;;5026099;27;117941;-83
2023/04/18 03:51:11;;;;;;;18.48;14.02;;;8.40;76.20;;;;;;5057238;27;115493;-82
2023/04/18 03:53:39;;;;;;;16.67;13.48;;;8.50;76.30;;;;;;5047724;27;114460;-84
2023/04/18 03:56:06;;;;;;;23.70;15.85;;;8.40;75.90;;;;;;5063085;27;114868;-84
2023/04/18 03:58:46;;;;;;;19.40;14.50;;;8.40;76.00;;;;;;5063134;27;114590;-82
2023/04/18 04:01:13;;;;;;;18.77;14.07;;;8.40;75.80;;;;;;5057755;27;114562;-84
2023/04/18 04:03:40;;;;;;;18.38;14.02;;;8.40;75.90;;;;;;5043704;27;114536;-83
2023/04/18 04:06:08;;;;;;;20.45;14.35;;;8.40;75.70;;;;;;5012476;27;116549;-83
2023/04/18 04:08:35;;;;;;;21.10;14.48;;;8.30;75.60;;;;;;5064396;27;116278;-83
2023/04/18 04:11:02;;;;;;;19.75;13.68;;;8.30;75.50;;;;;;5064107;27;115668;-84
2023/04/18 04:13:29;;;;;;;18.30;12.65;;;8.30;75.40;;;;;;5065224;27;114414;-84
2023/04/18 04:15:57;;;;;;;16.05;12.48;;;8.30;75.40;;;;;;5045657;27;116074;-85
2023/04/18 04:18:29;;;;;;;21.75;13.57;;;8.30;75.30;;;;;;5063044;27;114648;-84
2023/04/18 04:20:58;;;;;;;16.35;13.00;;;8.20;75.30;;;;;;5063009;27;114577;-84
2023/04/18 04:23:40;;;;;;;17.15;13.02;;;8.20;75.20;;;;;;5031571;27;116228;-84
2023/04/18 04:26:10;;;;;;;17.63;13.25;;;8.20;74.90;;;;;;5062263;27;114853;-84
2023/04/18 04:28:45;;;;;;;16.23;13.23;;;8.20;75.00;;;;;;5062555;27;114665;-84
2023/04/18 04:31:17;;;;;;;18.02;13.60;;;8.20;75.10;;;;;;5046929;27;114293;-83
2023/04/18 04:33:45;;;;;;;15.85;12.48;;;8.20;75.20;;;;;;5046264;27;114596;-83
2023/04/18 04:36:18;;;;;;;16.38;13.00;;;8.30;75.20;;;;;;5062019;27;114947;-84
2023/04/18 04:38:47;;;;;;;15.80;12.90;;;8.30;75.30;;;;;;5062695;27;114607;-84
2023/04/18 04:41:16;;;;;;;19.60;14.05;;;8.20;75.30;;;;;;5018882;27;114597;-83
2023/04/18 04:43:45;;;;;;;17.13;13.05;;;8.30;75.40;;;;;;5040258;27;114247;-83
2023/04/18 04:46:18;;;;;;;18.17;14.02;;;8.30;75.50;;;;;;5038004;27;114808;-84
2023/04/18 04:48:48;;;;;;;18.30;13.68;;;8.40;75.50;;;;;;5040903;27;115841;-84
2023/04/18 04:51:15;;;;;;;17.83;13.13;;;8.40;75.50;;;;;;5023317;27;114612;-84
2023/04/18 04:53:42;;;;;;;16.58;13.65;;;8.40;75.40;;;;;;5025223;27;114598;-83
2023/04/18 04:56:09;;;;;;;16.55;13.55;;;8.50;75.30;;;;;;5037853;27;116259;-83
2023/04/18 04:58:43;;;;;;;17.40;14.02;;;8.50;75.20;;;;;;5020704;27;115378;-83
2023/04/18 05:01:38;;;;;;;18.60;13.70;;;8.50;75.20;;;;;;5026110;27;114683;-84
2023/04/18 05:04:07;;;;;;;21.05;14.82;;;8.50;75.20;;;;;;5040983;27;114505;-84
2023/04/18 05:06:35;;;;;;;19.63;14.98;;;8.60;75.20;;;;;;5042953;27;114985;-84
2023/04/18 05:09:04;;;;;;;18.17;13.98;;;8.60;75.00;;;;;;5041700;27;115087;-84
2023/04/18 05:11:32;;;;;;;16.73;13.52;;;8.60;74.90;;;;;;5042605;27;115487;-84
2023/04/18 05:13:59;;;;;;;19.08;14.82;;;8.70;74.70;;;;;;5037883;27;114433;-84
2023/04/18 05:16:26;;;;;;;19.10;14.00;;;8.70;74.50;;;;;;5041580;27;116533;-84
2023/04/18 05:18:54;;;;;;;17.90;14.90;;;8.70;74.50;;;;;;5007464;27;114732;-83
2023/04/18 05:21:23;;;;;;;17.30;14.70;;;8.70;74.50;;;;;;5041986;27;114340;-84
2023/04/18 05:23:50;;;;;;;18.08;14.75;;;8.70;74.50;;;;;;5041116;27;114615;-84
2023/04/18 05:26:17;;;;;;;17.85;14.27;;;8.70;74.30;;;;;;5036621;27;117042;-85
2023/04/18 05:28:45;;;;;;;16.80;13.68;;;8.70;74.10;;;;;;5039373;27;114678;-84
2023/04/18 05:31:12;;;;;;;17.75;13.95;;;8.70;74.10;;;;;;5040716;27;115801;-84
2023/04/18 05:33:39;;;;;;;17.52;13.85;;;8.70;74.00;;;;;;5025019;27;114586;-83
2023/04/18 05:36:07;;;;;;;19.42;14.60;;;8.70;73.80;;;;;;5040512;27;117219;-85
2023/04/18 05:38:35;;;;;;;18.92;14.27;;;8.70;73.90;;;;;;5039638;27;118591;-85
2023/04/18 05:41:05;;;;;;;18.38;15.13;;;8.70;73.90;;;;;;5024527;27;115085;-84
2023/04/18 05:43:32;;;;;;;19.95;14.05;;;8.70;73.80;;;;;;5042090;27;114346;-84
2023/04/18 05:45:59;;;;;;;18.38;15.38;;;8.70;73.80;;;;;;5008006;27;118562;-85
2023/04/18 05:48:27;;;;;;;20.95;15.80;;;8.70;73.90;;;;;;5040813;27;117055;-84
2023/04/18 05:50:54;;;;;;;17.35;14.35;;;8.70;73.80;;;;;;5041090;27;114452;-84
2023/04/18 05:53:22;;;;;;;20.15;14.45;;;8.70;73.70;;;;;;5042687;27;114383;-84
2023/04/18 05:55:49;;;;;;;18.73;15.02;;;8.70;73.70;;;;;;5042790;27;115104;-84
2023/04/18 05:58:16;;;;;;;17.65;15.27;;;8.70;73.70;;;;;;5010770;27;114756;-82
2023/04/18 06:00:43;;;;;;;17.38;15.30;;;8.70;73.80;;;;;;5041655;27;114336;-83
2023/04/18 06:03:10;;;;;;;19.52;14.63;;;8.70;74.00;;;;;;5044904;27;114521;-84
2023/04/18 06:05:39;;;;;;;20.42;15.70;;;8.70;74.10;;;;;;5045640;27;117464;-84
2023/04/18 06:08:07;;;;;;;19.67;15.50;;;8.70;74.20;;;;;;5008058;27;117427;-84
2023/04/18 06:10:34;;;;;;;23.17;16.48;;;8.70;74.30;;;;;;5044071;27;114408;-84
2023/04/18 06:13:07;;;;;;;20.80;15.82;;;8.70;74.50;;;;;;5043834;27;114610;-84
2023/04/18 06:15:54;;;;;;;18.55;14.98;;;8.70;74.50;;;;;;5048125;27;115502;-84
2023/04/18 06:18:24;;;;;;;19.15;16.33;;;8.70;74.60;;;;;;5030852;27;114878;-84
2023/04/18 06:20:53;;;;;;;19.50;16.98;;;8.80;74.60;;;;;;5042404;27;114630;-84
2023/04/18 06:23:20;;;;;;;20.13;16.20;;;8.70;74.70;;;;;;5064632;27;114578;-84
2023/04/18 06:25:47;;;;;;;21.55;17.80;;;8.80;74.70;;;;;;5060921;27;115135;-83
2023/04/18 06:28:15;;;;;;;21.38;16.65;;;8.70;74.80;;;;;;5044085;27;114868;-84
2023/04/18 06:30:42;;;;;;;22.10;18.30;;;8.70;74.90;;;;;;5044951;27;118650;-84
2023/04/18 06:33:09;;;;;;;23.85;18.80;;;8.70;75.00;;;;;;5029091;27;116817;-83
2023/04/18 06:35:36;;;;;;;24.52;19.30;;;8.80;75.00;;;;;;5060026;27;114917;-84
2023/04/18 06:38:04;;;;;;;27.10;20.42;;;8.80;75.00;;;;;;5040747;27;116306;-84
2023/04/18 06:40:31;;;;;;;29.42;21.38;;;8.80;75.10;;;;;;5044109;27;114396;-86
2023/04/18 06:42:58;;;;;;;27.67;22.73;;;8.90;75.10;;;;;;5047672;27;114396;-83
2023/04/18 06:45:29;;;;;;;26.02;20.75;;;8.90;75.00;;;;;;5044891;27;114851;-84
2023/04/18 06:47:58;;;;;;;26.02;21.77;;;8.90;75.00;;;;;;5024646;27;115095;-85
2023/04/18 06:50:26;;;;;;;30.35;22.73;;;8.90;75.00;;;;;;5043511;27;114486;-84
2023/04/18 06:52:53;;;;;;;30.05;23.63;;;8.90;74.90;;;;;;5041008;27;116517;-87
2023/04/18 06:55:22;;;;;;;34.33;23.45;;;8.90;74.80;;;;;;5027293;27;114955;-84
2023/04/18 06:57:52;;;;;;;29.52;22.08;;;8.90;74.90;;;;;;5005444;27;118188;-83
2023/04/18 07:00:20;;;;;;;31.42;21.80;;;9.00;74.90;;;;;;5039877;27;114473;-85
2023/04/18 07:02:48;;;;;;;28.38;21.30;;;9.10;74.60;;;;;;5044138;27;115237;-85
2023/04/18 07:05:15;;;;;;;30.48;23.05;;;9.10;74.40;;;;;;5025388;27;116923;-84
2023/04/18 07:07:42;;;;;;;26.00;20.00;;;9.10;74.30;;;;;;5042293;27;119300;-84
2023/04/18 07:10:10;;;;;;;26.60;20.33;;;9.10;74.30;;;;;;5042625;27;119388;-82
2023/04/18 07:12:40;;;;;;;26.50;20.80;;;9.10;73.90;;;;;;5047133;27;114622;-86
2023/04/18 07:15:09;;;;;;;26.63;20.00;;;9.10;73.90;;;;;;5022640;27;115007;-82
2023/04/18 07:17:37;;;;;;;26.58;20.40;;;9.20;73.60;;;;;;5023956;27;114637;-85
2023/04/18 07:20:06;;;;;;;28.42;20.13;;;9.20;73.60;;;;;;5026403;27;114313;-85
2023/04/18 07:22:33;;;;;;;25.85;21.15;;;9.20;73.70;;;;;;5042316;27;114506;-85
2023/04/18 07:25:04;;;;;;;24.27;19.55;;;9.20;73.20;;;;;;5038617;27;116363;-84
2023/04/18 07:27:38;;;;;;;26.02;19.67;;;9.20;73.00;;;;;;5023823;27;114643;-85
2023/04/18 07:30:07;;;;;;;25.35;19.00;;;9.20;73.00;;;;;;5042374;27;115400;-86
2023/04/18 07:32:35;;;;;;;24.83;18.40;;;9.20;73.00;;;;;;5039001;27;114577;-85
2023/04/18 07:35:03;;;;;;;22.80;18.25;;;9.20;72.80;;;;;;5021550;27;118780;-85
2023/04/18 07:37:31;;;;;;;26.40;20.30;;;9.20;72.60;;;;;;5009463;27;114841;-85
2023/04/18 07:39:58;;;;;;;24.63;19.13;;;9.30;72.40;;;;;;5021019;27;114594;-86
2023/04/18 07:42:27;;;;;;;25.85;19.92;;;9.30;72.30;;;;;;5020872;27;114318;-85
2023/04/18 07:44:58;;;;;;;25.90;19.60;;;9.30;72.20;;;;;;5005412;27;114985;-87
2023/04/18 07:47:26;;;;;;;26.27;18.40;;;9.30;72.30;;;;;;5025028;27;118345;-86
2023/04/18 07:49:57;;;;;;;23.77;19.45;;;9.40;72.00;;;;;;5004053;27;114520;-86
2023/04/18 07:52:24;;;;;;;24.08;18.48;;;9.40;72.00;;;;;;5023501;27;114211;-85
2023/04/18 07:54:54;;;;;;;25.67;19.08;;;9.40;71.90;;;;;;5007585;27;114904;-84
2023/04/18 07:57:21;;;;;;;24.73;20.30;;;9.50;71.80;;;;;;5044185;27;118939;-84
2023/04/18 07:59:52;;;;;;;25.15;18.77;;;9.50;71.60;;;;;;5038062;27;114639;-84
2023/04/18 08:02:20;;;;;;;23.98;19.17;;;9.50;71.50;;;;;;5021408;27;114567;-85
2023/04/18 08:04:54;;;;;;;27.67;19.63;;;9.50;71.20;;;;;;5026862;27;117837;-83
2023/04/18 08:07:25;;;;;;;25.58;19.35;;;9.40;71.50;;;;;;5022364;27;115972;-86
2023/04/18 08:09:54;;;;;;;23.98;18.02;;;9.40;71.50;;;;;;5008886;27;114664;-85
2023/04/18 08:12:21;;;;;;;25.40;19.30;;;9.40;71.50;;;;;;5038590;27;114575;-86
2023/04/18 08:14:56;;;;;;;27.00;19.38;;;9.50;71.30;;;;;;5038064;27;118282;-85
2023/04/18 08:17:23;;;;;;;24.38;19.00;;;9.50;71.30;;;;;;4995521;27;116447;-85
2023/04/18 08:19:50;;;;;;;25.38;19.15;;;9.50;71.00;;;;;;5024526;27;115038;-87
2023/04/18 08:22:17;;;;;;;22.95;18.20;;;9.50;71.10;;;;;;5026989;27;114325;-84
2023/04/18 08:24:44;;;;;;;23.73;18.90;;;9.50;70.80;;;;;;5024448;27;115271;-84
2023/04/18 08:27:30;;;;;;;23.95;18.20;;;9.60;70.70;;;;;;5026959;27;117364;-85
2023/04/18 08:30:03;;;;;;;20.20;16.15;;;9.60;70.70;;;;;;5009463;27;114501;-85
2023/04/18 08:32:30;;;;;;;21.40;15.95;;;9.70;70.10;;;;;;5043134;27;114477;-83
2023/04/18 08:34:58;;;;;;;22.70;16.30;;;9.70;69.60;;;;;;5042976;27;115497;-83
2023/04/18 08:37:26;;;;;;;20.70;16.27;;;9.70;69.30;;;;;;5043134;27;116398;-83
2023/04/18 08:39:54;;;;;;;19.95;15.32;;;9.80;69.10;;;;;;5025915;27;114652;-84
2023/04/18 08:42:22;;;;;;;19.60;15.02;;;9.90;68.80;;;;;;4994130;27;114548;-84
2023/04/18 08:44:50;;;;;;;20.75;14.38;;;10.00;68.80;;;;;;4992727;27;117905;-84
2023/04/18 08:47:18;;;;;;;19.08;14.30;;;10.00;67.80;;;;;;5011687;27;116616;-84
2023/04/18 08:49:45;;;;;;;17.40;13.15;;;10.20;67.10;;;;;;5026935;27;114619;-84
2023/04/18 08:52:13;;;;;;;18.70;12.35;;;10.20;66.80;;;;;;5026710;27;114516;-84
2023/04/18 08:54:41;;;;;;;15.43;12.45;;;10.30;66.30;;;;;;5008550;27;116198;-84
2023/04/18 08:57:11;;;;;;;16.13;12.65;;;10.50;65.50;;;;;;4988963;28;118157;-83
2023/04/18 08:59:39;;;;;;;17.23;13.02;;;10.60;65.00;;;;;;5025449;27;114705;-85
2023/04/18 09:02:07;;;;;;;16.08;12.10;;;10.70;64.50;;;;;;5018319;27;114452;-84
2023/04/18 09:04:47;;;;;;;14.52;11.60;;;10.80;64.10;;;;;;5025325;27;115518;-84
2023/04/18 09:07:15;;;;;;;17.67;12.00;;;11.00;63.20;;;;;;5049564;27;114703;-84
2023/04/18 09:09:49;;;;;;;13.77;11.25;;;11.20;62.70;;;;;;5010070;27;117056;-84
2023/04/18 09:12:21;;;;;;;16.02;12.23;;;11.30;61.80;;;;;;5009620;27;114581;-84
2023/04/18 09:14:50;;;;;;;15.30;11.75;;;11.30;61.60;;;;;;5026041;27;114444;-83
2023/04/18 09:17:41;;;;;;;17.23;12.25;;;11.40;60.60;;;;;;5022714;27;117283;-84
2023/04/18 09:20:09;;;;;;;16.13;12.40;;;11.50;61.20;;;;;;5025868;27;114608;-84
2023/04/18 09:22:53;;;;;;;14.18;11.70;;;11.60;61.10;;;;;;5006958;27;114499;-84
2023/04/18 09:25:33;;;;;;;13.80;11.38;;;11.70;59.70;;;;;;5035181;27;116811;-84
2023/04/18 09:28:01;;;;;;;15.50;11.27;;;11.70;58.80;;;;;;5040649;27;115228;-85
2023/04/18 09:30:33;;;;;;;14.60;10.45;;;11.60;58.90;;;;;;5010416;27;114774;-84
2023/04/18 09:33:01;;;;;;;14.13;11.00;;;11.70;59.40;;;;;;5026069;27;114413;-84
2023/04/18 09:35:32;;;;;;;14.63;10.40;;;11.70;58.40;;;;;;5009655;27;117951;-83
2023/04/18 09:38:00;;;;;;;15.88;10.98;;;11.70;58.40;;;;;;5044773;27;118085;-84
2023/04/18 09:40:27;;;;;;;15.43;10.82;;;11.80;57.90;;;;;;5009215;28;114814;-85
2023/04/18 09:42:54;;;;;;;14.20;10.57;;;11.80;58.20;;;;;;5044956;27;114555;-84
2023/04/18 09:45:22;;;;;;;15.75;10.70;;;11.80;57.80;;;;;;4994757;27;117653;-84
2023/04/18 09:47:50;;;;;;;13.38;9.65;;;11.90;56.60;;;;;;5011346;27;116251;-84
2023/04/18 09:50:19;;;;;;;14.00;9.70;;;11.90;56.50;;;;;;5012428;27;114651;-83
2023/04/18 09:52:49;;;;;;;13.93;10.20;;;11.90;56.30;;;;;;5046054;27;114262;-84
2023/04/18 09:55:19;;;;;;;16.13;10.82;;;11.90;56.30;;;;;;5011563;27;115480;-84
2023/04/18 09:57:47;;;;;;;11.77;10.10;;;12.00;55.70;;;;;;5011102;27;116760;-83
2023/04/18 10:00:22;;;;;;;14.35;10.20;;;11.90;56.10;;;;;;5029210;27;114395;-83
2023/04/18 10:02:57;;;;;;;13.75;10.07;;;12.00;56.10;;;;;;5030294;27;114489;-84
2023/04/18 10:05:27;;;;;;;15.10;9.48;;;12.00;56.00;;;;;;5028953;27;119065;-85
2023/04/18 10:07:57;;;;;;;16.10;10.73;;;12.00;55.50;;;;;;4996235;27;117748;-84
2023/04/18 10:10:25;;;;;;;17.52;11.15;;;11.90;54.90;;;;;;5031208;27;114403;-83
2023/04/18 10:12:55;;;;;;;15.25;11.05;;;11.80;55.50;;;;;;5031396;27;114505;-85
2023/04/18 10:15:25;;;;;;;14.27;10.50;;;11.80;55.90;;;;;;5027623;27;114716;-85
2023/04/18 10:17:54;;;;;;;12.65;10.15;;;11.90;56.30;;;;;;5028174;27;117661;-85
2023/04/18 10:20:32;;;;;;;12.82;10.57;;;11.90;56.30;;;;;;5012567;27;114501;-84
2023/04/18 10:23:20;;;;;;;15.90;11.30;;;12.00;56.80;;;;;;5046881;27;114709;-84
2023/04/18 10:25:48;;;;;;;13.20;10.77;;;12.20;56.60;;;;;;5030759;27;114937;-85
2023/04/18 10:28:16;;;;;;;14.73;10.55;;;12.20;55.50;;;;;;4994626;27;117802;-84
2023/04/18 10:30:43;;;;;;;14.00;9.80;;;12.30;54.50;;;;;;5007196;27;114525;-85
2023/04/18 10:33:22;;;;;;;12.50;9.30;;;12.40;54.70;;;;;;5045295;27;114841;-84
2023/04/18 10:35:57;;;;;;;15.02;9.68;;;12.50;53.80;;;;;;5041649;27;115647;-84
2023/04/18 10:38:44;;;;;;;17.40;11.05;;;12.50;54.10;;;;;;5043319;27;115005;-84
2023/04/18 10:41:24;;;;;;;12.73;9.43;;;12.50;54.10;;;;;;5041956;27;114516;-84
2023/04/18 10:44:13;;;;;;;11.95;9.10;;;12.50;53.10;;;;;;5009863;27;114514;-83
2023/04/18 10:46:51;;;;;;;11.43;9.20;;;12.50;52.70;;;;;;5025304;27;118655;-84
2023/04/18 10:49:25;;;;;;;12.18;8.90;;;12.50;53.30;;;;;;5026110;27;118425;-83
2023/04/18 10:51:59;;;;;;;11.57;8.07;;;12.70;53.20;;;;;;5010593;27;114694;-85
2023/04/18 10:54:27;;;;;;;10.45;8.07;;;12.70;52.90;;;;;;5028927;27;114585;-84
2023/04/18 10:56:56;;;;;;;9.43;8.38;;;12.80;52.50;;;;;;5041354;27;118022;-84
2023/04/18 10:59:24;;;;;;;14.23;8.32;;;12.80;51.20;;;;;;5027382;27;115148;-84
2023/04/18 11:02:28;;;;;;;10.93;7.88;;;12.80;50.70;;;;;;5011328;27;114507;-84
2023/04/18 11:05:05;;;;;;;10.80;7.60;;;12.80;50.30;;;;;;5028143;27;114607;-84
2023/04/18 11:07:47;;;;;;;10.05;7.60;;;12.80;50.70;;;;;;5011965;27;115007;-85
2023/04/18 11:10:25;;;;;;;10.13;7.20;;;12.80;50.30;;;;;;5044151;27;114786;-85
2023/04/18 11:12:53;;;;;;;10.57;7.40;;;12.90;49.60;;;;;;5003285;27;116385;-85
2023/04/18 11:15:22;;;;;;;8.93;6.40;;;12.80;49.50;;;;;;5029497;27;114437;-85
2023/04/18 11:18:00;;;;;;;10.98;6.95;;;13.00;48.30;;;;;;4996257;27;118397;-85
2023/04/18 11:20:28;;;;;;;12.13;7.18;;;13.00;48.50;;;;;;5043621;27;115952;-84
2023/04/18 11:22:58;;;;;;;9.98;5.95;;;13.00;48.60;;;;;;5027959;27;114473;-84
2023/04/18 11:25:30;;;;;;;10.55;7.07;;;13.00;49.00;;;;;;5012060;27;114277;-85
2023/04/18 11:27:59;;;;;;;9.38;6.40;;;13.20;48.40;;;;;;5027170;27;118453;-85
2023/04/18 11:30:26;;;;;;;11.80;6.45;;;13.20;47.60;;;;;;4995538;27;117750;-84
2023/04/18 11:32:54;;;;;;;9.43;6.63;;;13.20;47.70;;;;;;5010939;27;115703;-84
2023/04/18 11:35:23;;;;;;;9.98;6.25;;;13.20;48.30;;;;;;4995510;27;115158;-85
2023/04/18 11:37:53;;;;;;;9.32;6.00;;;13.20;47.10;;;;;;5023544;27;114923;-85
2023/04/18 11:40:20;;;;;;;13.10;7.50;;;13.20;47.50;;;;;;5030548;27;117763;-85
2023/04/18 11:42:47;;;;;;;10.82;7.32;;;13.20;47.70;;;;;;5013244;27;116224;-82
2023/04/18 11:45:15;;;;;;;10.05;7.20;;;13.20;47.80;;;;;;4995666;27;114490;-85
2023/04/18 11:47:42;;;;;;;10.45;7.35;;;13.00;47.90;;;;;;5044806;27;116152;-85
2023/04/18 11:50:10;;;;;;;11.32;6.97;;;12.90;48.10;;;;;;5006274;27;117587;-85
2023/04/18 11:52:44;;;;;;;11.10;7.10;;;12.80;48.40;;;;;;5012628;27;114251;-84
2023/04/18 11:55:12;;;;;;;9.15;7.32;;;12.80;48.30;;;;;;5027067;27;114394;-85
2023/04/18 11:57:41;;;;;;;12.45;7.80;;;12.80;48.50;;;;;;5007071;27;116089;-84
2023/04/18 12:00:11;;;;;;;8.60;6.55;;;12.80;48.50;;;;;;5043514;27;115125;-86
2023/04/18 12:02:42;;;;;;;13.05;7.60;;;12.80;48.40;;;;;;5020772;27;116203;-85
2023/04/18 12:05:10;;;;;;;10.13;7.75;;;12.80;48.20;;;;;;5021985;27;114416;-85
2023/04/18 12:07:39;;;;;;;14.48;7.70;;;12.80;48.10;;;;;;5036703;27;116017;-85
2023/04/18 12:10:18;;;;;;;9.57;7.07;;;12.90;48.40;;;;;;5021969;27;118003;-85
2023/04/18 12:12:52;;;;;;;9.40;6.68;;;13.10;47.90;;;;;;5039771;27;114502;-84
2023/04/18 12:15:22;;;;;;;8.43;6.22;;;13.10;47.30;;;;;;5038320;27;114636;-84
2023/04/18 12:17:52;;;;;;;10.77;7.00;;;13.10;47.30;;;;;;5037857;27;114885;-85
2023/04/18 12:20:23;;;;;;;9.63;6.65;;;13.20;47.30;;;;;;5035635;27;115119;-86
2023/04/18 12:22:53;;;;;;;11.07;7.10;;;13.30;47.20;;;;;;5020833;27;114331;-84
2023/04/18 12:25:27;;;;;;;9.88;6.45;;;13.40;46.70;;;;;;5004181;27;114724;-85
2023/04/18 12:28:13;;;;;;;10.10;6.28;;;13.50;45.90;;;;;;5021243;27;115376;-85
2023/04/18 12:30:41;;;;;;;8.52;5.85;;;13.50;45.90;;;;;;4994709;27;114807;-84
2023/04/18 12:33:08;;;;;;;7.97;5.57;;;13.60;45.30;;;;;;5010200;27;114502;-83
2023/04/18 12:35:35;;;;;;;9.52;5.43;;;13.60;45.10;;;;;;5027311;27;114333;-84
2023/04/18 12:38:04;;;;;;;8.10;5.60;;;13.70;45.10;;;;;;5059487;27;116128;-84
2023/04/18 12:40:32;;;;;;;8.57;6.05;;;13.70;45.00;;;;;;5025997;27;114916;-83
2023/04/18 12:42:59;;;;;;;9.60;6.32;;;13.70;44.80;;;;;;5025779;27;114491;-86